createdAt,value
2019-01-17T00:00:01.365Z,987.42
2019-01-17T00:05:01.674Z,987.36
2019-01-17T00:10:01.979Z,987.36
2019-01-17T00:15:02.221Z,987.27
2019-01-17T00:20:01.517Z,987.22
2019-01-17T00:25:01.737Z,987.28
2019-01-17T00:30:02.022Z,987.37
2019-01-17T00:35:01.339Z,987.38
2019-01-17T00:40:01.634Z,987.34
2019-01-17T00:45:01.918Z,987.34
2019-01-17T00:50:02.202Z,987.34
2019-01-17T00:55:01.478Z,987.42
2019-01-17T01:00:01.746Z,987.33
2019-01-17T01:05:02.034Z,987.28
2019-01-17T01:10:01.368Z,987.38
2019-01-17T01:15:01.655Z,987.21
2019-01-17T01:20:01.928Z,987.31
2019-01-17T01:25:02.186Z,987.31
2019-01-17T01:30:01.488Z,987.34
2019-01-17T01:35:01.846Z,987.33
2019-01-17T01:40:02.083Z,987.31
2019-01-17T01:45:01.427Z,987.34
2019-01-17T01:50:01.917Z,987.44
2019-01-17T01:55:02.167Z,987.44
2019-01-17T02:00:01.637Z,987.42
2019-01-17T02:05:02.115Z,987.49
2019-01-17T02:10:01.445Z,987.47
2019-01-17T02:15:02.175Z,987.55
2019-01-17T02:20:01.470Z,987.46
2019-01-17T02:25:01.811Z,987.37
2019-01-17T02:30:02.082Z,987.52
2019-01-17T02:35:01.391Z,987.47
2019-01-17T02:40:01.710Z,987.51
2019-01-17T02:45:02.078Z,987.48
2019-01-17T02:50:01.362Z,987.52
2019-01-17T02:55:01.663Z,987.5
2019-01-17T03:00:01.984Z,987.57
2019-01-17T03:05:01.325Z,987.56
2019-01-17T03:10:01.611Z,987.46
2019-01-17T03:15:01.896Z,987.42
2019-01-17T03:20:02.234Z,987.41
2019-01-17T03:25:01.545Z,987.42
2019-01-17T03:30:02.253Z,987.55
2019-01-17T03:35:01.614Z,987.44
2019-01-17T03:40:01.469Z,987.39
2019-01-17T03:45:01.792Z,987.42
2019-01-17T03:50:02.110Z,987.33
2019-01-17T03:55:01.426Z,987.26
2019-01-17T04:00:01.798Z,987.32
2019-01-17T04:05:02.099Z,987.26
2019-01-17T04:10:01.425Z,987.17
2019-01-17T04:15:01.771Z,986.93
2019-01-17T04:20:02.089Z,986.97
2019-01-17T04:25:01.346Z,987.02
2019-01-17T04:30:01.646Z,986.91
2019-01-17T04:35:01.967Z,986.9
2019-01-17T04:40:02.237Z,986.88
2019-01-17T04:45:01.532Z,986.87
2019-01-17T04:50:01.807Z,986.91
2019-01-17T04:55:05.868Z,987
2019-01-17T05:00:02.124Z,987.13
2019-01-17T05:05:01.385Z,987.09
2019-01-17T05:10:01.681Z,987.08
2019-01-17T05:15:01.978Z,987.12
2019-01-17T05:20:02.226Z,987.13
2019-01-17T05:25:01.541Z,987.08
2019-01-17T05:30:01.925Z,987.14
2019-01-17T05:35:02.267Z,986.99
2019-01-17T05:40:01.848Z,986.98
2019-01-17T05:45:02.123Z,987.26
2019-01-17T05:50:01.413Z,987.26
2019-01-17T05:55:01.760Z,987.27
2019-01-17T06:00:02.044Z,987.28
2019-01-17T06:05:01.367Z,987.26
2019-01-17T06:10:01.672Z,987.25
2019-01-17T06:15:01.992Z,987.06
2019-01-17T06:20:01.317Z,987.11
2019-01-17T06:25:01.576Z,987.09
2019-01-17T06:30:01.850Z,987.22
2019-01-17T06:35:02.138Z,987.14
2019-01-17T06:40:01.504Z,987.2
2019-01-17T06:45:01.825Z,987.09
2019-01-17T06:50:02.147Z,987.03
2019-01-17T06:55:01.463Z,987.06
2019-01-17T07:00:01.731Z,987.16
2019-01-17T07:05:02.039Z,987.1
2019-01-17T07:10:01.386Z,987.01
2019-01-17T07:15:01.706Z,986.99
2019-01-17T07:20:02.037Z,987.1
2019-01-17T07:25:01.284Z,987.08
2019-01-17T07:30:01.609Z,987.09
2019-01-17T07:35:01.906Z,987.05
2019-01-17T07:40:02.189Z,987.11
2019-01-17T07:45:01.461Z,987.1
2019-01-17T07:50:01.767Z,987.17
2019-01-17T07:55:02.055Z,987.14
2019-01-17T08:00:01.403Z,987.27
2019-01-17T08:05:01.734Z,987.24
2019-01-17T08:10:02.039Z,987.27
2019-01-17T08:15:01.321Z,987.28
2019-01-17T08:20:01.609Z,987.28
2019-01-17T08:25:01.871Z,987.3
2019-01-17T08:30:02.153Z,987.26
2019-01-17T08:35:01.472Z,987.33
2019-01-17T08:40:01.777Z,987.35
2019-01-17T08:45:02.037Z,987.38
2019-01-17T08:50:01.356Z,987.35
2019-01-17T08:55:01.641Z,987.39
2019-01-17T09:00:01.951Z,987.37
2019-01-17T09:05:02.231Z,987.24
2019-01-17T09:10:01.513Z,987.29
2019-01-17T09:15:01.787Z,987.27
2019-01-17T09:20:02.075Z,987.13
2019-01-17T09:25:01.410Z,987.12
2019-01-17T09:30:01.724Z,987.11
2019-01-17T09:35:02.054Z,986.94
2019-01-17T09:40:01.384Z,986.93
2019-01-17T09:45:01.690Z,986.91
2019-01-17T09:50:01.982Z,986.86
2019-01-17T09:55:02.216Z,986.92
2019-01-17T10:00:01.516Z,986.97
2019-01-17T10:05:01.836Z,986.88
2019-01-17T10:10:02.078Z,986.75
2019-01-17T10:15:01.444Z,986.8
2019-01-17T10:20:01.753Z,986.77
2019-01-17T10:25:01.295Z,986.79
2019-01-17T10:30:01.674Z,986.71
2019-01-17T10:35:02.014Z,986.7
2019-01-17T10:40:01.322Z,986.6
2019-01-17T10:45:01.634Z,986.54
2019-01-17T10:50:01.916Z,986.52
2019-01-17T10:55:02.167Z,986.38
2019-01-17T11:00:01.476Z,986.4
2019-01-17T11:05:01.766Z,986.37
2019-01-17T11:10:02.043Z,986.34
2019-01-17T11:15:01.345Z,986.26
2019-01-17T11:20:01.656Z,986.21
2019-01-17T11:25:02.624Z,986.21
2019-01-17T11:30:01.929Z,986.24
2019-01-17T11:35:02.200Z,986.1
2019-01-17T11:40:01.484Z,986.07
2019-01-17T11:45:01.805Z,986.08
2019-01-17T11:50:02.107Z,986.12
2019-01-17T11:55:01.414Z,986.17
2019-01-17T12:00:01.733Z,986.25
2019-01-17T12:05:02.038Z,986.18
2019-01-17T12:10:01.335Z,986.26
2019-01-17T12:15:01.731Z,986.24
2019-01-17T12:20:02.045Z,986.16
2019-01-17T12:25:01.384Z,986.4
2019-01-17T12:30:01.706Z,986.2
2019-01-17T12:35:02.042Z,986.27
2019-01-17T12:40:01.342Z,986.35
2019-01-17T12:45:01.672Z,986.65
2019-01-17T12:50:01.996Z,986.58
2019-01-17T12:55:01.314Z,986.83
2019-01-17T13:00:08.121Z,986.99
2019-01-17T13:05:01.468Z,987.16
2019-01-17T13:10:01.762Z,987.26
2019-01-17T13:15:02.043Z,987.35
2019-01-17T13:20:01.383Z,987.44
2019-01-17T13:25:01.697Z,987.41
2019-01-17T13:30:02.035Z,987.46
2019-01-17T13:35:01.398Z,987.42
2019-01-17T13:40:01.714Z,987.58
2019-01-17T13:45:02.031Z,987.55
2019-01-17T13:50:01.355Z,987.59
2019-01-17T13:55:02.000Z,987.62
2019-01-17T14:00:01.457Z,987.7
2019-01-17T14:05:01.767Z,987.78
2019-01-17T14:10:02.051Z,987.88
2019-01-17T14:15:01.343Z,988.04
2019-01-17T14:20:01.469Z,988.19
2019-01-17T14:25:01.746Z,988.26
2019-01-17T14:30:02.010Z,988.38
2019-01-17T14:35:01.331Z,988.59
2019-01-17T14:40:01.663Z,988.68
2019-01-17T14:45:01.971Z,988.79
2019-01-17T14:50:02.210Z,988.91
2019-01-17T14:55:01.493Z,989.01
2019-01-17T15:00:01.824Z,989.25
2019-01-17T15:05:02.132Z,989.25
2019-01-17T15:10:01.452Z,989.43
2019-01-17T15:15:01.736Z,989.58
2019-01-17T15:20:02.039Z,989.85
2019-01-17T15:25:01.395Z,989.92
2019-01-17T15:30:01.668Z,989.91
2019-01-17T15:35:02.047Z,990.1
2019-01-17T15:40:01.397Z,990.19
2019-01-17T15:45:01.709Z,990.43
2019-01-17T15:50:01.992Z,990.57
2019-01-17T15:55:02.251Z,990.6
2019-01-17T16:00:01.550Z,990.51
2019-01-17T16:05:01.790Z,990.64
2019-01-17T16:10:03.659Z,990.61
2019-01-17T16:15:01.971Z,990.77
2019-01-17T16:20:02.234Z,990.77
2019-01-17T16:25:01.589Z,990.95
2019-01-17T16:30:01.917Z,990.96
2019-01-17T16:35:02.193Z,991.17
2019-01-17T16:40:01.544Z,991.23
2019-01-17T16:45:01.825Z,991.47
2019-01-17T16:50:02.124Z,991.46
2019-01-17T16:55:01.418Z,991.55
2019-01-17T17:00:01.752Z,991.65
2019-01-17T17:05:02.041Z,991.72
2019-01-17T17:10:01.363Z,991.77
2019-01-17T17:15:01.622Z,991.8
2019-01-17T17:20:01.925Z,991.94
2019-01-17T17:25:02.185Z,991.98
2019-01-17T17:30:01.450Z,992.06
2019-01-17T17:35:01.766Z,992.12
2019-01-17T17:40:02.053Z,992.08
2019-01-17T17:45:01.350Z,992.15
2019-01-17T17:50:01.663Z,992.19
2019-01-17T17:55:01.948Z,992.32
2019-01-17T18:00:02.205Z,992.35
2019-01-17T18:05:01.507Z,992.36
2019-01-17T18:10:01.809Z,992.35
2019-01-17T18:15:02.100Z,992.37
2019-01-17T18:20:01.435Z,992.4
2019-01-17T18:25:01.736Z,992.41
2019-01-17T18:30:02.016Z,992.43
2019-01-17T18:35:01.338Z,992.55
2019-01-17T18:40:01.641Z,992.57
2019-01-17T18:45:01.921Z,992.62
2019-01-17T18:50:02.177Z,992.77
2019-01-17T18:55:01.478Z,992.82
2019-01-17T19:00:01.837Z,992.75
2019-01-17T19:05:02.096Z,992.8
2019-01-17T19:10:01.483Z,992.84
2019-01-17T19:15:01.783Z,992.92
2019-01-17T19:20:02.127Z,993.12
2019-01-17T19:25:01.429Z,993.17
2019-01-17T19:30:01.733Z,993.28
2019-01-17T19:35:02.042Z,993.37
2019-01-17T19:40:01.366Z,993.56
2019-01-17T19:45:01.674Z,993.57
2019-01-17T19:50:01.980Z,993.77
2019-01-17T19:55:02.284Z,993.89
2019-01-17T20:00:01.577Z,993.99
2019-01-17T20:05:01.869Z,994.16
2019-01-17T20:10:02.138Z,994.3
2019-01-17T20:15:01.436Z,994.47
2019-01-17T20:20:01.742Z,994.59
2019-01-17T20:25:02.069Z,994.71
2019-01-17T20:30:01.375Z,994.78
2019-01-17T20:35:01.722Z,994.83
2019-01-17T20:40:02.006Z,994.94
2019-01-17T20:45:01.288Z,995.12
2019-01-17T20:50:01.575Z,995.3
2019-01-17T20:55:01.903Z,995.47
2019-01-17T21:00:02.177Z,995.58
2019-01-17T21:05:01.497Z,995.7
2019-01-17T21:10:01.793Z,995.83
2019-01-17T21:15:02.230Z,995.93
2019-01-17T21:20:01.553Z,995.94
2019-01-17T21:25:01.826Z,996.06
2019-01-17T21:30:02.085Z,996.09
2019-01-17T21:35:01.436Z,996.21
2019-01-17T21:40:01.801Z,996.25
2019-01-17T21:45:02.097Z,996.29
2019-01-17T21:50:01.437Z,996.43
2019-01-17T21:55:01.773Z,996.51
2019-01-17T22:00:02.085Z,996.55
2019-01-17T22:05:01.430Z,996.67
2019-01-17T22:10:02.232Z,996.7
2019-01-17T22:15:01.564Z,996.75
2019-01-17T22:20:01.879Z,996.82
2019-01-17T22:25:02.978Z,996.81
2019-01-17T22:30:02.269Z,996.86
2019-01-17T22:35:01.590Z,996.8
2019-01-17T22:40:01.887Z,996.85
2019-01-17T22:45:02.143Z,996.89
2019-01-17T22:50:01.479Z,996.9
2019-01-17T22:55:01.736Z,996.95
2019-01-17T23:00:02.016Z,996.96
2019-01-17T23:05:01.337Z,997.02
2019-01-17T23:10:01.669Z,997.06
2019-01-17T23:15:01.968Z,997.09
2019-01-17T23:20:02.203Z,997.16
2019-01-17T23:25:01.435Z,997.21
2019-01-17T23:30:01.719Z,997.25
2019-01-17T23:35:02.008Z,997.26
2019-01-17T23:40:01.351Z,997.4
2019-01-17T23:45:01.674Z,997.45
2019-01-17T23:50:02.035Z,997.51
2019-01-17T23:55:01.312Z,997.53
